createdAt,value
2017-10-26T00:01:14.230Z,99.99
2017-10-26T00:01:53.212Z,99.99
2017-10-26T00:02:53.217Z,99.99
2017-10-26T00:04:14.213Z,99.99
2017-10-26T00:04:53.201Z,99.99
2017-10-26T00:06:14.203Z,99.99
2017-10-26T00:06:53.192Z,99.99
2017-10-26T00:07:53.185Z,99.99
2017-10-26T00:09:14.189Z,99.99
2017-10-26T00:09:53.177Z,99.99
2017-10-26T00:11:14.181Z,99.99
2017-10-26T00:11:53.164Z,99.99
2017-10-26T00:12:53.164Z,99.99
2017-10-26T00:14:14.175Z,99.99
2017-10-26T00:14:53.152Z,99.99
2017-10-26T00:16:14.157Z,99.99
2017-10-26T00:16:53.144Z,99.99
2017-10-26T00:17:53.166Z,99.99
2017-10-26T00:19:14.142Z,99.99
2017-10-26T00:19:53.126Z,99.99
2017-10-26T00:21:14.130Z,99.99
2017-10-26T00:21:53.123Z,99.99
2017-10-26T00:22:53.160Z,99.99
2017-10-26T00:24:14.122Z,99.99
2017-10-26T00:24:53.109Z,99.99
2017-10-26T00:26:14.136Z,99.99
2017-10-26T00:26:53.099Z,99.99
2017-10-26T00:27:53.097Z,99.99
2017-10-26T00:29:14.091Z,99.99
2017-10-26T00:29:53.081Z,99.99
2017-10-26T00:31:14.089Z,99.99
2017-10-26T00:31:53.077Z,99.99
2017-10-26T00:32:53.065Z,99.99
2017-10-26T00:34:14.070Z,99.99
2017-10-26T00:34:53.061Z,99.99
2017-10-26T00:36:14.063Z,99.99
2017-10-26T00:36:53.059Z,99.99
2017-10-26T00:37:53.048Z,99.99
2017-10-26T00:39:14.046Z,99.99
2017-10-26T00:39:53.039Z,99.99
2017-10-26T00:41:14.036Z,99.99
2017-10-26T00:41:53.052Z,99.99
2017-10-26T00:42:53.041Z,99.99
2017-10-26T00:44:14.027Z,99.99
2017-10-26T00:44:53.032Z,99.99
2017-10-26T00:46:14.016Z,99.99
2017-10-26T00:46:53.004Z,99.99
2017-10-26T00:47:53.000Z,99.99
2017-10-26T00:49:13.999Z,99.99
2017-10-26T00:49:52.992Z,99.99
2017-10-26T00:51:13.989Z,99.99
2017-10-26T00:51:52.977Z,99.99
2017-10-26T00:52:52.974Z,99.99
2017-10-26T00:54:13.975Z,99.99
2017-10-26T00:54:52.966Z,99.99
2017-10-26T00:56:13.967Z,99.99
2017-10-26T00:56:52.969Z,99.99
2017-10-26T00:57:52.977Z,99.99
2017-10-26T00:59:13.951Z,99.99
2017-10-26T00:59:52.949Z,99.99
2017-10-26T01:01:13.943Z,99.99
2017-10-26T01:01:52.945Z,99.99
2017-10-26T01:02:52.941Z,99.99
2017-10-26T01:04:13.992Z,99.99
2017-10-26T01:04:52.950Z,99.99
2017-10-26T01:06:13.917Z,99.99
2017-10-26T01:06:52.934Z,99.99
2017-10-26T01:07:52.972Z,99.99
2017-10-26T01:09:13.904Z,99.99
2017-10-26T01:09:52.936Z,99.99
2017-10-26T01:11:13.898Z,99.99
2017-10-26T01:11:52.912Z,99.99
2017-10-26T01:12:52.909Z,99.99
2017-10-26T01:14:13.881Z,99.99
2017-10-26T01:14:52.893Z,99.99
2017-10-26T01:16:13.881Z,99.99
2017-10-26T01:16:52.912Z,99.99
2017-10-26T01:17:52.874Z,99.99
2017-10-26T01:19:13.854Z,99.99
2017-10-26T01:19:52.896Z,99.99
2017-10-26T01:21:13.848Z,99.99
2017-10-26T01:21:52.837Z,99.99
2017-10-26T01:22:52.834Z,99.99
2017-10-26T01:24:13.832Z,99.99
2017-10-26T01:24:52.823Z,99.99
2017-10-26T01:26:13.822Z,99.99
2017-10-26T01:26:52.818Z,99.99
2017-10-26T01:27:52.885Z,99.99
2017-10-26T01:29:13.812Z,99.99
2017-10-26T01:29:52.827Z,99.99
2017-10-26T01:31:13.800Z,99.99
2017-10-26T01:31:53.058Z,99.99
2017-10-26T01:32:52.810Z,99.99
2017-10-26T01:34:13.787Z,99.99
2017-10-26T01:34:52.821Z,99.99
2017-10-26T01:36:14.007Z,99.99
2017-10-26T01:36:52.786Z,99.99
2017-10-26T01:37:52.763Z,99.99
2017-10-26T01:39:13.758Z,99.99
2017-10-26T01:39:52.751Z,99.99
2017-10-26T01:41:13.754Z,99.99
2017-10-26T01:41:52.763Z,99.99
2017-10-26T01:42:52.773Z,99.99
2017-10-26T01:44:13.733Z,99.99
2017-10-26T01:44:54.131Z,99.99
2017-10-26T01:46:13.721Z,99.99
2017-10-26T01:46:52.743Z,99.99
2017-10-26T01:47:52.742Z,99.99
2017-10-26T01:49:13.731Z,99.99
2017-10-26T01:49:52.697Z,99.99
2017-10-26T01:51:13.696Z,99.99
2017-10-26T01:51:52.692Z,99.99
2017-10-26T01:52:52.682Z,99.99
2017-10-26T01:54:13.680Z,99.99
2017-10-26T01:54:52.672Z,99.99
2017-10-26T01:56:13.675Z,99.99
2017-10-26T01:56:52.691Z,99.99
2017-10-26T01:57:52.694Z,99.99
2017-10-26T01:59:13.656Z,99.99
2017-10-26T01:59:52.663Z,99.99
2017-10-26T02:01:13.649Z,99.99
2017-10-26T02:01:52.663Z,99.99
2017-10-26T02:02:52.678Z,99.99
2017-10-26T02:04:13.653Z,99.99
2017-10-26T02:04:52.641Z,99.99
2017-10-26T02:06:13.628Z,99.99
2017-10-26T02:06:52.630Z,99.99
2017-10-26T02:07:52.634Z,99.99
2017-10-26T02:09:13.608Z,99.99
2017-10-26T02:09:52.617Z,99.99
2017-10-26T02:11:13.594Z,99.99
2017-10-26T02:11:52.616Z,99.99
2017-10-26T02:12:52.600Z,99.99
2017-10-26T02:14:13.580Z,99.99
2017-10-26T02:14:52.570Z,99.99
2017-10-26T02:16:13.569Z,99.99
2017-10-26T02:16:52.557Z,99.99
2017-10-26T02:17:52.557Z,99.99
2017-10-26T02:19:13.556Z,99.99
2017-10-26T02:19:52.550Z,99.99
2017-10-26T02:21:13.575Z,99.99
2017-10-26T02:21:52.534Z,99.99
2017-10-26T02:22:52.529Z,99.99
2017-10-26T02:24:13.529Z,99.99
2017-10-26T02:24:52.516Z,99.99
2017-10-26T02:26:13.524Z,99.99
2017-10-26T02:26:52.528Z,99.99
2017-10-26T02:27:52.510Z,99.99
2017-10-26T02:29:13.505Z,99.99
2017-10-26T02:29:52.491Z,99.99
2017-10-26T02:31:13.499Z,99.99
2017-10-26T02:31:52.483Z,99.99
2017-10-26T02:32:52.472Z,99.99
2017-10-26T02:34:13.476Z,99.99
2017-10-26T02:34:52.464Z,99.99
2017-10-26T02:36:13.468Z,99.99
2017-10-26T02:36:52.456Z,99.99
2017-10-26T02:37:52.454Z,99.99
2017-10-26T02:39:13.455Z,99.99
2017-10-26T02:39:52.442Z,99.99
2017-10-26T02:41:13.440Z,99.99
2017-10-26T02:41:52.431Z,99.99
2017-10-26T02:42:53.223Z,99.99
2017-10-26T02:44:13.432Z,99.99
2017-10-26T02:44:52.413Z,99.99
2017-10-26T02:46:13.419Z,99.99
2017-10-26T02:46:52.402Z,99.99
2017-10-26T02:47:52.397Z,99.99
2017-10-26T02:49:13.397Z,99.99
2017-10-26T02:49:52.385Z,99.99
2017-10-26T02:51:13.388Z,99.99
2017-10-26T02:51:52.377Z,99.99
2017-10-26T02:52:52.369Z,99.99
2017-10-26T02:54:13.370Z,99.99
2017-10-26T02:54:52.361Z,99.99
2017-10-26T02:56:13.362Z,99.99
2017-10-26T02:56:52.349Z,99.99
2017-10-26T02:57:52.343Z,99.99
2017-10-26T02:59:13.350Z,99.99
2017-10-26T02:59:52.335Z,99.99
2017-10-26T03:01:13.333Z,99.99
2017-10-26T03:01:52.323Z,99.99
2017-10-26T03:02:52.321Z,99.99
2017-10-26T03:04:13.319Z,99.99
2017-10-26T03:04:52.318Z,99.99
2017-10-26T03:06:13.315Z,99.99
2017-10-26T03:06:52.294Z,99.99
2017-10-26T03:07:52.292Z,99.99
2017-10-26T03:09:13.290Z,99.99
2017-10-26T03:09:52.276Z,99.99
2017-10-26T03:11:13.281Z,99.99
2017-10-26T03:11:52.269Z,99.99
2017-10-26T03:12:52.281Z,99.99
2017-10-26T03:14:13.266Z,99.99
2017-10-26T03:14:52.262Z,99.99
2017-10-26T03:16:13.252Z,99.99
2017-10-26T03:16:52.242Z,99.99
2017-10-26T03:17:52.232Z,99.99
2017-10-26T03:19:13.235Z,99.99
2017-10-26T03:19:52.226Z,99.99
2017-10-26T03:21:13.228Z,99.99
2017-10-26T03:21:52.219Z,99.99
2017-10-26T03:22:52.209Z,99.99
2017-10-26T03:24:13.210Z,99.99
2017-10-26T03:24:52.202Z,99.99
2017-10-26T03:26:13.202Z,99.99
2017-10-26T03:26:52.187Z,99.99
2017-10-26T03:27:52.188Z,99.99
2017-10-26T03:29:13.181Z,99.99
2017-10-26T03:29:52.171Z,99.99
2017-10-26T03:31:13.170Z,99.99
2017-10-26T03:31:52.163Z,99.99
2017-10-26T03:32:52.160Z,99.99
2017-10-26T03:34:13.155Z,99.99
2017-10-26T03:34:52.139Z,99.99
2017-10-26T03:36:13.145Z,99.99
2017-10-26T03:36:52.130Z,99.99
2017-10-26T03:37:52.124Z,99.99
2017-10-26T03:39:13.127Z,99.99
2017-10-26T03:39:52.113Z,99.99
2017-10-26T03:41:13.118Z,99.99
2017-10-26T03:41:52.104Z,99.99
2017-10-26T03:42:52.101Z,99.99
2017-10-26T03:44:13.681Z,99.99
2017-10-26T03:44:52.088Z,99.99
2017-10-26T03:46:13.089Z,99.99
2017-10-26T03:46:52.076Z,99.99
2017-10-26T03:47:52.075Z,99.99
2017-10-26T03:49:13.073Z,99.99
2017-10-26T03:49:52.059Z,99.99
2017-10-26T03:51:13.062Z,99.99
2017-10-26T03:51:52.049Z,99.99
2017-10-26T03:52:52.045Z,99.99
2017-10-26T03:54:13.057Z,99.99
2017-10-26T03:54:52.035Z,99.99
2017-10-26T03:56:13.038Z,99.99
2017-10-26T03:56:52.021Z,99.99
2017-10-26T03:57:52.017Z,99.99
2017-10-26T03:59:13.016Z,99.99
2017-10-26T03:59:52.003Z,99.99
2017-10-26T04:01:13.009Z,99.99
2017-10-26T04:01:51.994Z,99.99
2017-10-26T04:02:51.990Z,99.99
2017-10-26T04:04:12.989Z,99.99
2017-10-26T04:04:51.982Z,99.99
2017-10-26T04:06:12.980Z,99.99
2017-10-26T04:06:51.966Z,99.99
2017-10-26T04:07:51.967Z,99.99
2017-10-26T04:09:12.968Z,99.99
2017-10-26T04:09:51.952Z,99.99
2017-10-26T04:11:12.954Z,99.99
2017-10-26T04:11:51.938Z,99.99
2017-10-26T04:12:51.930Z,99.99
2017-10-26T04:14:12.928Z,99.99
2017-10-26T04:14:51.919Z,99.99
2017-10-26T04:16:12.927Z,99.99
2017-10-26T04:16:51.911Z,99.99
2017-10-26T04:17:51.904Z,99.99
2017-10-26T04:19:12.908Z,99.99
2017-10-26T04:19:51.895Z,99.99
2017-10-26T04:21:12.894Z,99.99
2017-10-26T04:21:51.881Z,99.99
2017-10-26T04:22:51.876Z,99.99
2017-10-26T04:24:12.882Z,99.99
2017-10-26T04:24:51.870Z,99.99
2017-10-26T04:26:12.865Z,99.99
2017-10-26T04:26:51.851Z,99.99
2017-10-26T04:27:51.848Z,99.99
2017-10-26T04:29:12.852Z,99.99
2017-10-26T04:29:51.837Z,99.99
2017-10-26T04:31:12.845Z,99.99
2017-10-26T04:31:51.825Z,99.99
2017-10-26T04:32:51.819Z,99.99
2017-10-26T04:34:12.818Z,99.99
2017-10-26T04:34:51.806Z,99.99
2017-10-26T04:36:12.811Z,99.99
2017-10-26T04:36:51.799Z,99.99
2017-10-26T04:37:51.795Z,99.99
2017-10-26T04:39:12.794Z,99.99
2017-10-26T04:39:51.781Z,99.99
2017-10-26T04:41:13.722Z,99.99
2017-10-26T04:41:51.772Z,99.99
2017-10-26T04:42:51.764Z,99.99
2017-10-26T04:44:12.766Z,99.99
2017-10-26T04:44:51.750Z,99.99
2017-10-26T04:46:12.757Z,99.99
2017-10-26T04:46:51.744Z,99.99
2017-10-26T04:47:51.734Z,99.99
2017-10-26T04:49:12.737Z,99.99
2017-10-26T04:49:51.721Z,99.99
2017-10-26T04:51:12.723Z,99.99
2017-10-26T04:51:51.712Z,99.99
2017-10-26T04:52:51.708Z,99.99
2017-10-26T04:54:12.706Z,99.99
2017-10-26T04:54:51.691Z,99.99
2017-10-26T04:56:12.696Z,99.99
2017-10-26T04:56:51.688Z,99.99
2017-10-26T04:57:51.677Z,99.99
2017-10-26T04:59:12.674Z,99.99
2017-10-26T04:59:51.665Z,99.99
2017-10-26T05:01:12.721Z,99.99
2017-10-26T05:01:51.656Z,99.99
2017-10-26T05:02:51.649Z,99.99
2017-10-26T05:04:12.651Z,99.99
2017-10-26T05:04:51.637Z,99.99
2017-10-26T05:06:12.639Z,99.99
2017-10-26T05:06:51.624Z,99.99
2017-10-26T05:07:51.625Z,99.99
2017-10-26T05:09:12.625Z,99.99
2017-10-26T05:09:51.609Z,99.99
2017-10-26T05:11:12.611Z,99.99
2017-10-26T05:11:51.601Z,99.99
2017-10-26T05:12:51.592Z,99.99
2017-10-26T05:14:12.613Z,99.99
2017-10-26T05:14:51.580Z,99.99
2017-10-26T05:16:12.580Z,99.99
2017-10-26T05:16:51.570Z,99.99
2017-10-26T05:17:51.568Z,99.99
2017-10-26T05:19:12.563Z,99.99
2017-10-26T05:19:51.552Z,99.99
2017-10-26T05:21:12.554Z,99.99
2017-10-26T05:21:51.537Z,99.99
2017-10-26T05:22:51.534Z,99.99
2017-10-26T05:24:12.540Z,99.99
2017-10-26T05:24:51.522Z,99.99
2017-10-26T05:26:12.524Z,99.99
2017-10-26T05:26:51.509Z,99.99
2017-10-26T05:27:51.504Z,99.99
2017-10-26T05:29:12.505Z,99.99
2017-10-26T05:29:51.496Z,99.99
2017-10-26T05:31:12.493Z,99.99
2017-10-26T05:31:51.481Z,99.99
2017-10-26T05:32:51.473Z,99.99
2017-10-26T05:34:12.475Z,99.99
2017-10-26T05:34:51.462Z,99.99
2017-10-26T05:36:12.465Z,99.99
2017-10-26T05:36:51.451Z,99.99
2017-10-26T05:37:51.469Z,99.99
2017-10-26T05:39:12.452Z,99.99
2017-10-26T05:39:51.431Z,99.99
2017-10-26T05:41:12.441Z,99.99
2017-10-26T05:41:51.428Z,99.99
2017-10-26T05:42:51.417Z,99.99
2017-10-26T05:44:12.419Z,99.99
2017-10-26T05:44:51.405Z,99.99
2017-10-26T05:46:12.406Z,99.99
2017-10-26T05:46:51.393Z,99.99
2017-10-26T05:47:51.389Z,99.99
2017-10-26T05:49:12.387Z,99.99
2017-10-26T05:49:51.376Z,99.99
2017-10-26T05:51:12.375Z,99.99
2017-10-26T05:51:51.363Z,99.99
2017-10-26T05:52:51.359Z,99.99
2017-10-26T05:54:12.359Z,99.99
2017-10-26T05:54:51.345Z,99.99
2017-10-26T05:56:12.349Z,99.99
2017-10-26T05:56:51.333Z,99.99
2017-10-26T05:57:51.328Z,99.99
2017-10-26T05:59:12.334Z,99.99
2017-10-26T05:59:51.319Z,99.99
2017-10-26T06:01:12.318Z,99.99
2017-10-26T06:01:51.304Z,99.99
2017-10-26T06:02:51.302Z,99.99
2017-10-26T06:04:12.301Z,99.99
2017-10-26T06:04:51.290Z,99.99
2017-10-26T06:06:12.290Z,99.99
2017-10-26T06:06:51.280Z,99.99
2017-10-26T06:07:51.269Z,99.99
2017-10-26T06:09:12.273Z,99.99
2017-10-26T06:09:51.258Z,99.99
2017-10-26T06:11:12.257Z,99.99
2017-10-26T06:11:51.245Z,99.99
2017-10-26T06:12:51.241Z,99.99
2017-10-26T06:14:12.243Z,99.99
2017-10-26T06:14:51.234Z,99.99
2017-10-26T06:16:12.230Z,99.99
2017-10-26T06:16:51.216Z,99.99
2017-10-26T06:17:51.208Z,99.99
2017-10-26T06:19:12.214Z,99.99
2017-10-26T06:19:51.201Z,99.99
2017-10-26T06:21:12.207Z,99.99
2017-10-26T06:21:51.185Z,99.99
2017-10-26T06:22:51.182Z,99.99
2017-10-26T06:24:12.187Z,99.99
2017-10-26T06:24:51.169Z,99.99
2017-10-26T06:26:12.170Z,99.99
2017-10-26T06:26:51.160Z,99.99
2017-10-26T06:27:51.150Z,99.99
2017-10-26T06:29:12.153Z,99.99
2017-10-26T06:29:51.142Z,99.99
2017-10-26T06:31:12.143Z,99.99
2017-10-26T06:31:51.137Z,99.99
2017-10-26T06:32:51.125Z,99.99
2017-10-26T06:34:12.124Z,99.99
2017-10-26T06:34:51.108Z,99.99
2017-10-26T06:36:12.125Z,99.99
2017-10-26T06:36:51.100Z,99.99
2017-10-26T06:37:51.092Z,99.99
2017-10-26T06:39:12.094Z,99.99
2017-10-26T06:39:51.084Z,99.99
2017-10-26T06:41:12.082Z,99.99
2017-10-26T06:41:51.072Z,99.99
2017-10-26T06:42:51.068Z,99.99
2017-10-26T06:44:12.070Z,99.99
2017-10-26T06:44:51.054Z,99.99
2017-10-26T06:46:12.051Z,99.99
2017-10-26T06:46:51.041Z,99.99
2017-10-26T06:47:51.037Z,99.99
2017-10-26T06:49:12.035Z,99.99
2017-10-26T06:49:51.023Z,99.99
2017-10-26T06:51:12.026Z,99.99
2017-10-26T06:51:51.011Z,99.99
2017-10-26T06:52:51.009Z,99.99
2017-10-26T06:54:12.005Z,99.99
2017-10-26T06:54:50.994Z,99.99
2017-10-26T06:56:11.995Z,99.99
2017-10-26T06:56:50.982Z,99.99
2017-10-26T06:57:50.979Z,99.99
2017-10-26T06:59:11.985Z,99.99
2017-10-26T06:59:50.969Z,99.99
2017-10-26T07:01:11.969Z,99.99
2017-10-26T07:01:50.955Z,99.99
2017-10-26T07:02:50.947Z,99.99
2017-10-26T07:04:11.963Z,99.99
2017-10-26T07:04:50.941Z,99.99
2017-10-26T07:06:11.968Z,99.99
2017-10-26T07:06:50.925Z,99.99
2017-10-26T07:07:50.939Z,99.99
2017-10-26T07:09:11.920Z,99.99
2017-10-26T07:09:50.908Z,99.99
2017-10-26T07:11:11.906Z,99.99
2017-10-26T07:11:50.899Z,99.99
2017-10-26T07:12:50.896Z,99.99
2017-10-26T07:14:11.898Z,99.99
2017-10-26T07:14:50.883Z,99.99
2017-10-26T07:16:11.889Z,99.99
2017-10-26T07:16:50.871Z,99.99
2017-10-26T07:17:50.892Z,99.99
2017-10-26T07:19:11.864Z,99.99
2017-10-26T07:19:50.859Z,99.99
2017-10-26T07:21:11.858Z,99.99
2017-10-26T07:21:50.843Z,99.99
2017-10-26T07:22:50.839Z,99.99
2017-10-26T07:24:11.840Z,99.99
2017-10-26T07:24:50.827Z,99.99
2017-10-26T07:26:11.826Z,99.99
2017-10-26T07:26:50.817Z,99.99
2017-10-26T07:27:50.807Z,99.99
2017-10-26T07:29:11.812Z,99.99
2017-10-26T07:29:50.799Z,99.99
2017-10-26T07:31:11.800Z,99.99
2017-10-26T07:31:50.786Z,99.99
2017-10-26T07:32:50.783Z,99.99
2017-10-26T07:34:11.787Z,99.99
2017-10-26T07:34:50.776Z,99.99
2017-10-26T07:36:11.773Z,99.99
2017-10-26T07:36:50.765Z,99.99
2017-10-26T07:37:50.754Z,99.99
2017-10-26T07:39:11.754Z,99.99
2017-10-26T07:39:50.743Z,99.99
2017-10-26T07:41:11.744Z,99.99
2017-10-26T07:41:50.729Z,99.99
2017-10-26T07:42:50.725Z,99.99
2017-10-26T07:44:11.728Z,99.99
2017-10-26T07:44:50.713Z,99.99
2017-10-26T07:46:11.714Z,99.99
2017-10-26T07:46:50.709Z,99.99
2017-10-26T07:47:50.700Z,99.99
2017-10-26T07:49:11.698Z,99.99
2017-10-26T07:49:50.692Z,99.99
2017-10-26T07:51:11.689Z,99.99
2017-10-26T07:51:50.678Z,99.99
2017-10-26T07:52:50.674Z,99.99
2017-10-26T07:54:11.680Z,99.99
2017-10-26T07:54:50.661Z,99.99
2017-10-26T07:56:11.665Z,99.99
2017-10-26T07:56:50.651Z,99.99
2017-10-26T07:57:50.648Z,99.99
2017-10-26T07:59:11.645Z,99.99
2017-10-26T07:59:50.634Z,99.99
2017-10-26T08:01:11.635Z,99.99
2017-10-26T08:01:50.624Z,99.99
2017-10-26T08:02:50.620Z,99.99
2017-10-26T08:04:11.621Z,99.99
2017-10-26T08:04:50.607Z,99.99
2017-10-26T08:06:11.608Z,99.99
2017-10-26T08:06:50.600Z,99.99
2017-10-26T08:07:50.599Z,99.99
2017-10-26T08:09:11.598Z,99.99
2017-10-26T08:09:50.583Z,99.99
2017-10-26T08:11:11.585Z,99.99
2017-10-26T08:11:50.572Z,99.99
2017-10-26T08:12:50.567Z,99.99
2017-10-26T08:14:11.576Z,99.99
2017-10-26T08:14:50.557Z,99.99
2017-10-26T08:16:11.574Z,99.99
2017-10-26T08:16:50.549Z,99.99
2017-10-26T08:17:50.544Z,99.99
2017-10-26T08:19:11.547Z,99.99
2017-10-26T08:19:50.534Z,99.99
2017-10-26T08:21:11.533Z,99.99
2017-10-26T08:21:50.520Z,99.99
2017-10-26T08:22:50.520Z,99.99
2017-10-26T08:24:11.520Z,99.99
2017-10-26T08:24:50.507Z,99.99
2017-10-26T08:26:11.510Z,99.99
2017-10-26T08:26:50.497Z,99.99
2017-10-26T08:27:50.493Z,99.99
2017-10-26T08:29:11.491Z,99.99
2017-10-26T08:29:50.478Z,99.99
2017-10-26T08:31:11.485Z,99.99
2017-10-26T08:31:50.469Z,99.99
2017-10-26T08:32:50.466Z,99.99
2017-10-26T08:34:11.466Z,99.99
2017-10-26T08:34:50.473Z,99.99
2017-10-26T08:36:11.465Z,99.99
2017-10-26T08:36:50.477Z,99.99
2017-10-26T08:37:50.444Z,99.99
2017-10-26T08:39:11.441Z,99.99
2017-10-26T08:39:50.435Z,99.99
2017-10-26T08:41:11.450Z,99.99
2017-10-26T08:41:50.422Z,99.99
2017-10-26T08:42:50.417Z,99.99
2017-10-26T08:44:11.427Z,99.99
2017-10-26T08:44:50.408Z,99.99
2017-10-26T08:46:11.411Z,99.99
2017-10-26T08:46:50.400Z,99.99
2017-10-26T08:47:50.430Z,99.99
2017-10-26T08:49:11.398Z,99.99
2017-10-26T08:49:50.382Z,99.99
2017-10-26T08:51:11.385Z,99.99
2017-10-26T08:51:50.376Z,99.99
2017-10-26T08:52:50.367Z,99.99
2017-10-26T08:54:11.394Z,99.99
2017-10-26T08:54:50.359Z,99.99
2017-10-26T08:56:11.363Z,99.99
2017-10-26T08:56:50.352Z,99.99
2017-10-26T08:57:50.372Z,99.99
2017-10-26T08:59:11.349Z,99.99
2017-10-26T08:59:50.336Z,99.99
2017-10-26T09:01:11.339Z,99.99
2017-10-26T09:01:50.324Z,99.99
2017-10-26T09:02:50.321Z,99.99
2017-10-26T09:04:11.326Z,99.99
2017-10-26T09:04:50.313Z,99.99
2017-10-26T09:06:11.316Z,99.99
2017-10-26T09:06:50.308Z,99.99
2017-10-26T09:07:50.301Z,99.99
2017-10-26T09:09:11.303Z,99.99
2017-10-26T09:09:50.289Z,99.99
2017-10-26T09:11:11.290Z,99.99
2017-10-26T09:11:50.282Z,99.99
2017-10-26T09:12:50.290Z,99.99
2017-10-26T09:14:11.274Z,99.99
2017-10-26T09:14:50.262Z,99.99
2017-10-26T09:16:11.270Z,99.99
2017-10-26T09:16:50.260Z,99.99
2017-10-26T09:19:11.307Z,99.99
2017-10-26T09:21:11.350Z,99.99
2017-10-26T09:21:50.283Z,99.99
2017-10-26T09:24:21.817Z,99.99
2017-10-26T09:25:21.812Z,99.99
2017-10-26T09:27:14.678Z,99.99
2017-10-26T09:28:14.671Z,99.99
2017-10-26T09:30:07.552Z,99.99
2017-10-26T09:31:07.542Z,99.99
2017-10-26T09:33:00.416Z,99.99
2017-10-26T09:34:00.412Z,99.99
2017-10-26T09:35:53.271Z,99.99
2017-10-26T09:36:53.269Z,99.23
2017-10-26T09:38:46.146Z,99.43
2017-10-26T09:39:46.140Z,99.71
2017-10-26T09:41:39.006Z,99.23
2017-10-26T09:42:39.003Z,98.85
2017-10-26T09:44:31.875Z,99.33
2017-10-26T09:45:31.869Z,99.33
2017-10-26T09:47:24.741Z,98.08
2017-10-26T09:48:24.736Z,98.13
2017-10-26T09:50:17.609Z,98.52
2017-10-26T09:51:17.602Z,97.47
2017-10-26T09:53:10.492Z,96.99
2017-10-26T09:54:10.466Z,96.51
2017-10-26T09:56:03.352Z,96.22
2017-10-26T09:57:03.343Z,96.99
2017-10-26T09:58:56.235Z,96.70
2017-10-26T09:59:56.201Z,96.22
2017-10-26T10:01:49.075Z,96.70
2017-10-26T10:02:49.068Z,97.18
2017-10-26T10:04:41.966Z,97.13
2017-10-26T10:05:41.959Z,95.79
2017-10-26T10:07:34.841Z,96.37
2017-10-26T10:08:34.829Z,95.89
2017-10-26T10:10:27.702Z,95.41
2017-10-26T10:11:27.696Z,94.84
2017-10-26T10:12:27.699Z,94.55
2017-10-26T10:13:27.689Z,94.46
2017-10-26T10:14:27.687Z,94.65
2017-10-26T10:15:27.685Z,94.98
2017-10-26T10:16:27.677Z,94.55
2017-10-26T10:17:27.678Z,94.12
2017-10-26T10:18:27.670Z,94.21
2017-10-26T10:19:27.665Z,94.21
2017-10-26T10:20:27.663Z,94.21
2017-10-26T10:21:27.659Z,94.02
2017-10-26T10:22:27.656Z,93.74
2017-10-26T10:23:27.654Z,94.31
2017-10-26T10:24:27.651Z,94.31
2017-10-26T10:25:27.647Z,93.26
2017-10-26T10:26:27.641Z,93.07
2017-10-26T10:27:27.640Z,93.21
2017-10-26T10:28:27.636Z,92.16
2017-10-26T10:29:27.631Z,92.06
2017-10-26T10:30:27.629Z,91.49
2017-10-26T10:31:27.622Z,91.39
2017-10-26T10:32:27.621Z,90.91
2017-10-26T10:33:27.619Z,91.49
2017-10-26T10:34:27.607Z,91.49
2017-10-26T10:35:27.611Z,91.20
2017-10-26T10:36:27.614Z,91.01
2017-10-26T10:37:27.605Z,91.05
2017-10-26T10:38:27.603Z,90.19
2017-10-26T10:39:27.598Z,90.86
2017-10-26T10:40:27.596Z,90.48
2017-10-26T10:41:27.594Z,90.29
2017-10-26T10:42:27.589Z,90.29
2017-10-26T10:43:27.585Z,90.48
2017-10-26T10:44:27.585Z,89.81
2017-10-26T10:45:27.582Z,90.00
2017-10-26T10:46:27.575Z,90.09
2017-10-26T10:47:27.572Z,89.33
2017-10-26T10:48:27.571Z,90.19
2017-10-26T10:49:27.570Z,89.33
2017-10-26T10:50:27.564Z,89.33
2017-10-26T10:51:27.564Z,89.04
2017-10-26T10:52:27.558Z,88.76
2017-10-26T10:53:27.554Z,88.95
2017-10-26T10:54:27.553Z,88.99
2017-10-26T10:55:27.548Z,88.32
2017-10-26T10:56:27.547Z,88.90
2017-10-26T10:57:27.541Z,89.57
2017-10-26T10:58:27.543Z,89.66
2017-10-26T10:59:27.536Z,89.76
2017-10-26T11:00:27.537Z,90.14
2017-10-26T11:01:27.530Z,90.14
2017-10-26T11:02:27.528Z,89.66
2017-10-26T11:03:27.527Z,90.33
2017-10-26T11:04:27.521Z,89.86
2017-10-26T11:05:27.520Z,89.18
2017-10-26T11:06:27.515Z,88.70
2017-10-26T11:07:27.513Z,88.32
2017-10-26T11:08:27.511Z,88.32
2017-10-26T11:09:27.511Z,89.28
2017-10-26T11:10:27.505Z,88.42
2017-10-26T11:11:27.503Z,87.94
2017-10-26T11:12:27.502Z,88.99
2017-10-26T11:13:27.499Z,88.61
2017-10-26T11:14:27.494Z,88.51
2017-10-26T11:15:27.492Z,88.99
2017-10-26T11:16:27.491Z,88.70
2017-10-26T11:17:27.486Z,88.27
2017-10-26T11:18:27.485Z,87.74
2017-10-26T11:19:27.483Z,87.27
2017-10-26T11:20:27.484Z,87.55
2017-10-26T11:21:27.473Z,88.37
2017-10-26T11:22:27.476Z,88.17
2017-10-26T11:23:27.476Z,87.60
2017-10-26T11:24:27.472Z,87.74
2017-10-26T11:25:27.471Z,87.60
2017-10-26T11:26:27.469Z,87.31
2017-10-26T11:27:27.468Z,87.12
2017-10-26T11:28:27.466Z,87.02
2017-10-26T11:29:27.453Z,87.02
2017-10-26T11:30:27.461Z,85.72
2017-10-26T11:31:27.463Z,86.54
2017-10-26T11:32:27.461Z,86.40
2017-10-26T11:33:27.452Z,85.72
2017-10-26T11:34:27.456Z,86.49
2017-10-26T11:35:27.460Z,85.68
2017-10-26T11:36:27.454Z,85.44
2017-10-26T11:37:27.450Z,85.15
2017-10-26T11:38:27.451Z,84.77
2017-10-26T11:39:27.458Z,84.67
2017-10-26T11:40:27.448Z,84.14
2017-10-26T11:41:27.446Z,83.91
2017-10-26T11:42:27.442Z,84.48
2017-10-26T11:43:27.443Z,84.19
2017-10-26T11:44:27.444Z,85.34
2017-10-26T11:45:27.433Z,85.34
2017-10-26T11:46:27.442Z,85.53
2017-10-26T11:47:27.442Z,84.95
2017-10-26T11:48:27.437Z,84.86
2017-10-26T11:49:27.436Z,84.81
2017-10-26T11:50:27.448Z,84.77
2017-10-26T11:51:27.433Z,84.95
2017-10-26T11:52:27.435Z,84.67
2017-10-26T11:53:27.430Z,85.05
2017-10-26T11:54:27.432Z,85.34
2017-10-26T11:55:27.428Z,85.72
2017-10-26T11:56:27.424Z,85.53
2017-10-26T11:57:27.425Z,85.72
2017-10-26T11:58:27.424Z,85.44
2017-10-26T11:59:27.423Z,84.95
2017-10-26T12:00:27.422Z,84.77
2017-10-26T12:01:27.417Z,85.15
2017-10-26T12:02:27.483Z,84.52
2017-10-26T12:03:27.419Z,84.61
2017-10-26T12:04:27.425Z,84.23
2017-10-26T12:05:27.412Z,84.23
2017-10-26T12:06:27.415Z,84.33
2017-10-26T12:07:27.416Z,84.71
2017-10-26T12:08:27.415Z,83.85
2017-10-26T12:09:27.406Z,84.04
2017-10-26T12:10:27.406Z,83.37
2017-10-26T12:11:27.408Z,83.27
2017-10-26T12:12:27.402Z,83.85
2017-10-26T12:13:27.401Z,84.61
2017-10-26T12:14:27.404Z,84.33
2017-10-26T12:15:27.401Z,84.48
2017-10-26T12:16:27.400Z,85.15
2017-10-26T12:17:27.398Z,85.77
2017-10-26T12:18:27.395Z,84.52
2017-10-26T12:19:27.397Z,84.61
2017-10-26T12:20:27.392Z,83.85
2017-10-26T12:21:27.391Z,82.51
2017-10-26T12:22:27.395Z,83.65
2017-10-26T12:23:27.387Z,83.18
2017-10-26T12:24:27.391Z,82.26
2017-10-26T12:25:27.385Z,82.74
2017-10-26T12:26:27.402Z,82.64
2017-10-26T12:27:27.385Z,83.37
2017-10-26T12:28:27.383Z,82.45
2017-10-26T12:29:27.383Z,82.45
2017-10-26T12:30:27.388Z,82.45
2017-10-26T12:31:27.379Z,82.35
2017-10-26T12:32:27.379Z,80.63
2017-10-26T12:33:27.374Z,81.40
2017-10-26T12:34:27.376Z,82.16
2017-10-26T12:35:27.372Z,81.35
2017-10-26T12:36:27.401Z,81.64
2017-10-26T12:37:27.374Z,82.26
2017-10-26T12:38:27.374Z,81.59
2017-10-26T12:39:27.370Z,81.20
2017-10-26T12:40:27.372Z,81.10
2017-10-26T12:41:27.370Z,81.40
2017-10-26T12:42:27.367Z,81.63
2017-10-26T12:43:27.367Z,80.53
2017-10-26T12:44:27.367Z,81.24
2017-10-26T12:45:27.369Z,80.38
2017-10-26T12:46:27.363Z,79.80
2017-10-26T12:47:27.360Z,80.47
2017-10-26T12:48:27.363Z,80.57
2017-10-26T12:49:27.360Z,79.80
2017-10-26T12:50:27.384Z,79.42
2017-10-26T12:51:27.358Z,79.42
2017-10-26T12:52:27.364Z,79.99
2017-10-26T12:53:27.357Z,79.99
2017-10-26T12:54:27.370Z,79.52
2017-10-26T12:55:27.355Z,80.43
2017-10-26T12:56:27.355Z,80.63
2017-10-26T12:57:27.354Z,81.30
2017-10-26T12:58:27.353Z,81.10
2017-10-26T12:59:27.352Z,80.82
2017-10-26T13:00:27.353Z,81.59
2017-10-26T13:01:27.351Z,82.26
2017-10-26T13:02:27.350Z,82.64
2017-10-26T13:03:27.347Z,83.41
2017-10-26T13:04:27.348Z,82.54
2017-10-26T13:05:27.344Z,81.10
2017-10-26T13:06:27.346Z,81.87
2017-10-26T13:07:27.344Z,81.78
2017-10-26T13:08:27.346Z,81.97
2017-10-26T13:09:27.342Z,81.49
2017-10-26T13:10:27.354Z,82.45